Time;durP1;ratioP1;P1;durP2;ratioP2;P2;SDS_P1;SDS_P2;PMS_P1;PMS_P2;Temp;Humidity;BMP_temperature;BMP_pressure;BME280_temperature;BME280_humidity;BME280_pressure;Samples;Min_cycle;Max_cycle;Signal;HPM_P1;HPM_P2
2022/03/25 00:00:14;;;;;;;;;70.00;52.25;;;;;-147.70;100.00;61350.09;5077062;28;45698;-71
2022/03/25 00:02:42;;;;;;;;;66.75;53.00;;;;;-147.70;100.00;61350.09;5077522;27;45706;-71
2022/03/25 00:05:08;;;;;;;;;63.00;47.75;;;;;-147.70;100.00;61350.09;5076943;27;45384;-71
2022/03/25 00:07:34;;;;;;;;;66.50;51.50;;;;;-147.70;100.00;61350.09;5076796;27;45528;-71
2022/03/25 00:10:00;;;;;;;;;68.75;51.50;;;;;-147.70;100.00;61350.09;5077397;27;45280;-71
2022/03/25 00:12:26;;;;;;;;;68.00;50.50;;;;;-147.70;100.00;61350.09;5077335;27;45316;-71
2022/03/25 00:14:52;;;;;;;;;69.25;53.25;;;;;-147.70;100.00;61350.09;5076465;27;46479;-71
2022/03/25 00:17:17;;;;;;;;;69.00;52.00;;;;;-147.70;100.00;61350.09;5077324;27;45616;-71
2022/03/25 00:19:43;;;;;;;;;70.50;51.25;;;;;-147.70;100.00;61350.09;5077263;27;45210;-71
2022/03/25 00:22:08;;;;;;;;;68.75;52.50;;;;;-147.70;100.00;61350.09;5077194;27;45216;-71
2022/03/25 00:24:33;;;;;;;;;73.25;51.25;;;;;-147.70;100.00;61350.09;5076782;27;45717;-71
2022/03/25 00:26:59;;;;;;;;;68.00;49.75;;;;;-147.70;100.00;61350.09;5076922;27;45277;-71
2022/03/25 00:29:24;;;;;;;;;72.00;55.50;;;;;-147.70;100.00;61350.09;5076724;27;45356;-71
2022/03/25 00:31:50;;;;;;;;;71.00;53.25;;;;;-147.70;100.00;61350.09;5076685;28;45474;-70
2022/03/25 00:34:15;;;;;;;;;64.25;51.50;;;;;-147.70;100.00;61350.09;5076815;27;45670;-71
2022/03/25 00:36:40;;;;;;;;;73.00;52.25;;;;;-147.70;100.00;61350.09;5076394;27;45836;-71
2022/03/25 00:39:08;;;;;;;;;69.75;52.50;;;;;-147.70;100.00;61350.09;5076577;28;45427;-71
2022/03/25 00:41:34;;;;;;;;;69.25;50.25;;;;;-147.70;100.00;61350.09;5077127;27;45290;-71
2022/03/25 00:43:59;;;;;;;;;69.75;53.25;;;;;-147.70;100.00;61350.09;5076685;27;46475;-71
2022/03/25 00:46:27;;;;;;;;;71.00;51.25;;;;;-147.70;100.00;61350.09;5076870;27;45551;-71
2022/03/25 00:48:52;;;;;;;;;69.25;50.75;;;;;-147.70;100.00;61350.09;5080389;27;45292;-71
2022/03/25 00:51:18;;;;;;;;;70.75;54.00;;;;;-147.70;100.00;61350.09;5080420;27;45523;-70
2022/03/25 00:53:44;;;;;;;;;69.00;51.25;;;;;-147.70;100.00;61350.09;5079919;27;45465;-71
2022/03/25 00:56:10;;;;;;;;;70.50;53.75;;;;;-147.70;100.00;61350.09;5080229;27;45375;-70
2022/03/25 00:58:35;;;;;;;;;65.00;51.75;;;;;-147.70;100.00;61350.09;5080197;27;45670;-70
2022/03/25 01:01:01;;;;;;;;;69.75;52.25;;;;;-147.70;100.00;61350.09;5080274;28;45310;-71
2022/03/25 01:03:26;;;;;;;;;67.00;52.00;;;;;-147.70;100.00;61350.09;5080079;28;46458;-70
2022/03/25 01:05:52;;;;;;;;;76.00;55.00;;;;;-147.70;100.00;61350.09;5079918;28;45363;-70
2022/03/25 01:08:18;;;;;;;;;71.75;55.00;;;;;-147.70;100.00;61350.09;5079848;27;45410;-70
2022/03/25 01:10:43;;;;;;;;;74.25;57.25;;;;;-147.70;100.00;61350.09;5079697;27;45782;-70
2022/03/25 01:13:12;;;;;;;;;63.25;48.50;;;;;-147.70;100.00;61350.09;5079926;27;46235;-70
2022/03/25 01:15:38;;;;;;;;;69.00;54.00;;;;;-147.70;100.00;61350.09;5079956;27;45316;-70
2022/03/25 01:18:04;;;;;;;;;67.50;52.75;;;;;-147.70;100.00;61350.09;5080194;27;45292;-70
2022/03/25 01:20:30;;;;;;;;;69.25;54.50;;;;;-147.70;100.00;61350.09;5079891;27;45328;-70
2022/03/25 01:22:56;;;;;;;;;74.50;55.25;;;;;-147.70;100.00;61350.09;5075244;28;46995;-70
2022/03/25 01:25:21;;;;;;;;;70.00;53.75;;;;;-147.70;100.00;61350.09;5059535;28;45371;-70
2022/03/25 01:27:47;;;;;;;;;72.75;54.00;;;;;-147.70;100.00;61350.09;5059359;28;45316;-70
2022/03/25 01:30:12;;;;;;;;;70.50;52.50;;;;;-147.70;100.00;61350.09;5059500;28;45379;-70
2022/03/25 01:32:38;;;;;;;;;70.00;52.75;;;;;-147.70;100.00;61350.09;5058987;28;47283;-70
2022/03/25 01:35:09;;;;;;;;;73.75;54.25;;;;;-147.70;100.00;61350.09;5059203;28;45409;-70
2022/03/25 01:37:34;;;;;;;;;70.75;53.25;;;;;-147.70;100.00;61350.09;5059321;28;45414;-70
2022/03/25 01:40:00;;;;;;;;;70.50;53.50;;;;;-147.70;100.00;61350.09;5059372;28;45311;-70
2022/03/25 01:42:30;;;;;;;;;74.75;57.75;;;;;-147.70;100.00;61350.09;5059089;28;45530;-70
2022/03/25 01:44:55;;;;;;;;;67.00;52.75;;;;;-147.70;100.00;61350.09;5059199;28;45699;-70
2022/03/25 01:47:28;;;;;;;;;76.50;56.00;;;;;-147.70;100.00;61350.09;5059327;28;45249;-70
2022/03/25 01:49:54;;;;;;;;;75.25;57.50;;;;;-147.70;100.00;61350.09;5059485;28;45555;-70
2022/03/25 01:52:19;;;;;;;;;70.75;55.25;;;;;-147.70;100.00;61350.09;5058795;28;45465;-70
2022/03/25 01:54:46;;;;;;;;;76.25;59.00;;;;;-147.70;100.00;61350.09;5058917;28;45372;-70
2022/03/25 01:57:12;;;;;;;;;68.00;55.50;;;;;-147.70;100.00;61350.09;5058961;28;45229;-70
2022/03/25 01:59:38;;;;;;;;;84.25;66.50;;;;;-147.70;100.00;61350.09;5057908;28;45437;-70
2022/03/25 02:02:06;;;;;;;;;83.25;64.00;;;;;-147.70;100.00;61350.09;5058054;28;46989;-70
2022/03/25 02:04:32;;;;;;;;;77.75;58.25;;;;;-147.70;100.00;61350.09;5058072;28;45444;-70
2022/03/25 02:06:57;;;;;;;;;79.50;57.75;;;;;-147.70;100.00;61350.09;5058889;28;45406;-70
2022/03/25 02:09:25;;;;;;;;;80.75;58.00;;;;;-147.70;100.00;61350.09;5058437;28;45298;-70
2022/03/25 02:11:50;;;;;;;;;81.00;65.00;;;;;-147.70;100.00;61350.09;5058285;28;47642;-70
2022/03/25 02:14:16;;;;;;;;;72.50;54.50;;;;;-147.70;100.00;61350.09;5058500;28;45318;-70
2022/03/25 02:16:47;;;;;;;;;78.00;60.25;;;;;-147.70;100.00;61350.09;5058693;28;45336;-70
2022/03/25 02:19:18;;;;;;;;;70.50;56.00;;;;;-147.70;100.00;61350.09;5058711;28;45297;-70
2022/03/25 02:21:45;;;;;;;;;78.50;57.75;;;;;-147.70;100.00;61350.09;5065452;28;46176;-70
2022/03/25 02:24:12;;;;;;;;;78.00;60.50;;;;;-147.70;100.00;61350.09;5078697;27;45478;-70
2022/03/25 02:26:39;;;;;;;;;72.75;55.50;;;;;-147.70;100.00;61350.09;5078443;27;45759;-70
2022/03/25 02:29:07;;;;;;;;;77.50;60.25;;;;;-147.70;100.00;61350.09;5079205;28;45391;-70
2022/03/25 02:31:33;;;;;;;;;79.25;61.25;;;;;-147.70;100.00;61350.09;5078063;27;45952;-70
2022/03/25 02:34:04;;;;;;;;;78.75;59.25;;;;;-147.70;100.00;61350.09;5078661;27;45295;-70
2022/03/25 02:36:36;;;;;;;;;84.75;64.50;;;;;-147.70;100.00;61350.09;5079136;27;45307;-70
2022/03/25 02:39:02;;;;;;;;;82.25;63.50;;;;;-147.70;100.00;61350.09;5078844;28;45531;-70
2022/03/25 02:41:27;;;;;;;;;80.25;63.00;;;;;-147.70;100.00;61350.09;5078190;27;45450;-70
2022/03/25 02:43:52;;;;;;;;;75.00;56.75;;;;;-147.70;100.00;61350.09;5078764;28;45351;-70
2022/03/25 02:46:18;;;;;;;;;80.75;60.75;;;;;-147.70;100.00;61350.09;5078537;28;45364;-70
2022/03/25 02:48:43;;;;;;;;;83.00;60.75;;;;;-147.70;100.00;61350.09;5079024;28;45331;-70
2022/03/25 02:51:08;;;;;;;;;74.25;58.25;;;;;-147.70;100.00;61350.09;5078141;28;46174;-70
2022/03/25 02:53:34;;;;;;;;;79.25;62.25;;;;;-147.70;100.00;61350.09;5078455;28;45347;-70
2022/03/25 02:55:59;;;;;;;;;76.50;63.00;;;;;-147.70;100.00;61350.09;5078331;28;45581;-70
2022/03/25 02:58:24;;;;;;;;;77.75;60.25;;;;;-147.70;100.00;61350.09;5078272;27;45276;-70
2022/03/25 03:00:50;;;;;;;;;78.25;61.25;;;;;-147.70;100.00;61350.09;5078377;28;46163;-70
2022/03/25 03:03:15;;;;;;;;;77.50;61.75;;;;;-147.70;100.00;61350.09;5078126;27;45259;-70
2022/03/25 03:05:41;;;;;;;;;79.00;58.50;;;;;-147.70;100.00;61350.09;5078407;27;45223;-70
2022/03/25 03:08:07;;;;;;;;;82.50;64.75;;;;;-147.70;100.00;61350.09;5078449;27;45385;-70
2022/03/25 03:10:32;;;;;;;;;82.00;58.75;;;;;-147.70;100.00;61350.09;5077524;27;45996;-70
2022/03/25 03:12:59;;;;;;;;;78.75;58.50;;;;;-147.70;100.00;61350.09;5078380;27;45252;-70
2022/03/25 03:15:25;;;;;;;;;74.00;61.00;;;;;-147.70;100.00;61350.09;5078312;27;45244;-70
2022/03/25 03:17:51;;;;;;;;;85.25;70.00;;;;;-147.70;100.00;61350.09;5077702;27;45503;-70
2022/03/25 03:20:20;;;;;;;;;83.50;65.75;;;;;-147.70;100.00;61350.09;5077989;27;46973;-70
2022/03/25 03:22:48;;;;;;;;;77.75;60.00;;;;;-147.70;100.00;61350.09;5077666;28;45428;-70
2022/03/25 03:25:14;;;;;;;;;83.50;69.75;;;;;-147.70;100.00;61350.09;5077933;27;45355;-70
2022/03/25 03:27:40;;;;;;;;;80.00;64.75;;;;;-147.70;100.00;61350.09;5078221;27;45450;-70
2022/03/25 03:30:08;;;;;;;;;73.25;56.25;;;;;-147.70;100.00;61350.09;5077957;27;46432;-70
2022/03/25 03:32:34;;;;;;;;;81.25;60.25;;;;;-147.70;100.00;61350.09;5077620;27;45375;-70
2022/03/25 03:35:00;;;;;;;;;86.25;72.25;;;;;-147.70;100.00;61350.09;5077702;27;45443;-70
2022/03/25 03:37:26;;;;;;;;;81.00;62.75;;;;;-147.70;100.00;61350.09;5077565;27;45441;-70
2022/03/25 03:39:51;;;;;;;;;83.75;66.50;;;;;-147.70;100.00;61350.09;5077444;28;46213;-70
2022/03/25 03:42:17;;;;;;;;;86.25;67.25;;;;;-147.70;100.00;61350.09;5077831;27;45435;-70
2022/03/25 03:44:42;;;;;;;;;76.00;61.25;;;;;-147.70;100.00;61350.09;5078127;28;45255;-70
2022/03/25 03:47:08;;;;;;;;;82.25;66.50;;;;;-147.70;100.00;61350.09;5077945;27;45557;-70
2022/03/25 03:49:35;;;;;;;;;83.50;68.50;;;;;-147.70;100.00;61350.09;5077336;27;46352;-70
2022/03/25 03:52:01;;;;;;;;;82.50;66.00;;;;;-147.70;100.00;61350.09;5077096;27;45337;-70
2022/03/25 03:54:26;;;;;;;;;80.00;66.00;;;;;-147.70;100.00;61350.09;5077481;27;45456;-70
2022/03/25 03:56:52;;;;;;;;;81.50;64.50;;;;;-147.70;100.00;61350.09;5077757;27;45238;-70
2022/03/25 03:59:17;;;;;;;;;84.75;66.75;;;;;-147.70;100.00;61350.09;5077165;27;45735;-71
2022/03/25 04:01:42;;;;;;;;;82.50;65.50;;;;;-147.70;100.00;61350.09;5077404;28;45311;-71
2022/03/25 04:04:08;;;;;;;;;87.00;70.00;;;;;-147.70;100.00;61350.09;5077725;28;45407;-72
2022/03/25 04:06:33;;;;;;;;;84.75;69.50;;;;;-147.70;100.00;61350.09;5077710;27;45147;-72
2022/03/25 04:08:59;;;;;;;;;91.00;79.00;;;;;-147.70;100.00;61350.09;5077262;27;46591;-71
2022/03/25 04:11:25;;;;;;;;;86.00;67.50;;;;;-147.70;100.00;61350.09;5076967;27;45421;-72
2022/03/25 04:13:51;;;;;;;;;85.50;71.50;;;;;-147.70;100.00;61350.09;5077200;28;45229;-72
2022/03/25 04:16:16;;;;;;;;;87.25;73.25;;;;;-147.70;100.00;61350.09;5077561;27;45438;-71
2022/03/25 04:18:42;;;;;;;;;90.50;75.00;;;;;-147.70;100.00;61350.09;5077254;27;46365;-71
2022/03/25 04:21:07;;;;;;;;;85.50;70.75;;;;;-147.70;100.00;61350.09;5076806;27;45215;-71
2022/03/25 04:23:33;;;;;;;;;90.50;71.25;;;;;-147.70;100.00;61350.09;5080494;27;45255;-71
2022/03/25 04:25:59;;;;;;;;;86.75;75.50;;;;;-147.70;100.00;61350.09;5080778;27;45638;-71
2022/03/25 04:28:24;;;;;;;;;91.50;74.00;;;;;-147.70;100.00;61350.09;5080548;27;46295;-71
2022/03/25 04:30:49;;;;;;;;;94.25;72.00;;;;;-147.70;100.00;61350.09;5080773;27;45360;-71
2022/03/25 04:33:15;;;;;;;;;93.50;82.50;;;;;-147.70;100.00;61350.09;5080824;27;45286;-71
2022/03/25 04:35:40;;;;;;;;;87.50;73.75;;;;;-147.70;100.00;61350.09;5080961;28;45304;-71
2022/03/25 04:38:06;;;;;;;;;91.25;76.50;;;;;-147.70;100.00;61350.09;5080512;27;45502;-71
2022/03/25 04:40:32;;;;;;;;;90.00;69.00;;;;;-147.70;100.00;61350.09;5080379;27;45548;-71
2022/03/25 04:42:59;;;;;;;;;89.75;72.50;;;;;-147.70;100.00;61350.09;5080117;28;45641;-71
2022/03/25 04:45:26;;;;;;;;;86.50;73.00;;;;;-147.70;100.00;61350.09;5060610;28;45250;-71
2022/03/25 04:47:52;;;;;;;;;84.00;66.50;;;;;-147.70;100.00;61350.09;5066515;28;46151;-71
2022/03/25 04:50:18;;;;;;;;;94.50;73.50;;;;;-147.70;100.00;61350.09;5080076;27;45208;-71
2022/03/25 04:52:44;;;;;;;;;87.50;72.50;;;;;-147.70;100.00;61350.09;5079806;28;45161;-71
2022/03/25 04:55:11;;;;;;;;;93.75;76.75;;;;;-147.70;100.00;61350.09;5080191;27;45253;-71
2022/03/25 04:57:38;;;;;;;;;86.75;72.00;;;;;-147.70;100.00;61350.09;5079684;27;46608;-71
2022/03/25 05:00:04;;;;;;;;;87.50;78.75;;;;;-147.70;100.00;61350.09;5080278;27;45383;-71
2022/03/25 05:02:29;;;;;;;;;96.50;75.25;;;;;-147.70;100.00;61350.09;5079489;27;45363;-71
2022/03/25 05:04:55;;;;;;;;;88.50;71.75;;;;;-147.70;100.00;61350.09;5080745;28;45406;-71
2022/03/25 05:07:21;;;;;;;;;84.50;69.25;;;;;-147.70;100.00;61350.09;5079859;27;46120;-72
2022/03/25 05:09:46;;;;;;;;;83.00;71.00;;;;;-147.70;100.00;61350.09;5080017;27;45749;-71
2022/03/25 05:12:12;;;;;;;;;87.00;71.50;;;;;-147.70;100.00;61350.09;5080207;28;45387;-71
2022/03/25 05:14:38;;;;;;;;;94.00;77.50;;;;;-147.70;100.00;61350.09;5080102;27;45449;-71
2022/03/25 05:17:04;;;;;;;;;85.00;70.75;;;;;-147.70;100.00;61350.09;5080204;27;46301;-71
2022/03/25 05:19:29;;;;;;;;;114.75;85.50;;;;;-147.70;100.00;61350.09;5079758;27;45374;-72
2022/03/25 05:21:55;;;;;;;;;86.75;72.25;;;;;-147.70;100.00;61350.09;5079926;27;45254;-71
2022/03/25 05:24:21;;;;;;;;;100.25;76.25;;;;;-147.70;100.00;61350.09;5080291;27;45573;-71
2022/03/25 05:26:46;;;;;;;;;90.75;70.75;;;;;-147.70;100.00;61350.09;5079370;27;45473;-71
2022/03/25 05:29:12;;;;;;;;;88.75;72.00;;;;;-147.70;100.00;61350.09;5080059;27;45327;-71
2022/03/25 05:31:37;;;;;;;;;89.25;72.75;;;;;-147.70;100.00;61350.09;5079890;27;45427;-72
2022/03/25 05:34:04;;;;;;;;;88.25;76.50;;;;;-147.70;100.00;61350.09;5079710;27;45258;-71
2022/03/25 05:36:31;;;;;;;;;83.50;70.25;;;;;-147.70;100.00;61350.09;5079520;27;46275;-71
2022/03/25 05:38:57;;;;;;;;;85.50;63.75;;;;;-147.70;100.00;61350.09;5079292;27;45308;-71
2022/03/25 05:41:24;;;;;;;;;84.50;67.75;;;;;-147.70;100.00;61350.09;5079479;27;45229;-71
2022/03/25 05:43:50;;;;;;;;;94.50;77.00;;;;;-147.70;100.00;61350.09;5079784;27;45244;-71
2022/03/25 05:46:15;;;;;;;;;94.25;76.00;;;;;-147.70;100.00;61350.09;5079276;27;46222;-71
2022/03/25 05:48:40;;;;;;;;;95.50;73.25;;;;;-147.70;100.00;61350.09;5079502;27;45471;-72
2022/03/25 05:51:06;;;;;;;;;88.25;75.25;;;;;-147.70;100.00;61350.09;5079401;28;45348;-71
2022/03/25 05:53:32;;;;;;;;;88.25;76.25;;;;;-147.70;100.00;61350.09;5079595;27;45299;-71
2022/03/25 05:55:59;;;;;;;;;97.00;75.50;;;;;-147.70;100.00;61350.09;5078780;28;47057;-70
2022/03/25 05:58:25;;;;;;;;;85.75;69.25;;;;;-147.70;100.00;61350.09;5079226;27;45322;-71
2022/03/25 06:00:50;;;;;;;;;102.00;85.00;;;;;-147.70;100.00;61350.09;5079077;27;45434;-71
2022/03/25 06:03:16;;;;;;;;;105.50;85.75;;;;;-147.70;100.00;61350.09;5079642;27;45336;-71
2022/03/25 06:05:41;;;;;;;;;87.50;70.00;;;;;-147.70;100.00;61350.09;5079376;28;45426;-71
2022/03/25 06:08:07;;;;;;;;;87.75;70.25;;;;;-147.70;100.00;61350.09;5079245;28;45415;-71
2022/03/25 06:10:33;;;;;;;;;92.75;72.75;;;;;-147.70;100.00;61350.09;5078932;27;45283;-71
2022/03/25 06:12:58;;;;;;;;;87.25;76.00;;;;;-147.70;100.00;61350.09;5079192;27;45493;-71
2022/03/25 06:15:24;;;;;;;;;87.00;69.50;;;;;-147.70;100.00;61350.09;5078565;28;46022;-71
2022/03/25 06:17:53;;;;;;;;;88.00;74.00;;;;;-147.70;100.00;61350.09;5078225;27;45393;-71
2022/03/25 06:20:24;;;;;;;;;86.25;74.25;;;;;-147.70;100.00;61350.09;5079135;27;45295;-71
2022/03/25 06:22:50;;;;;;;;;91.50;73.25;;;;;-147.70;100.00;61350.09;5076292;27;45394;-71
2022/03/25 06:25:16;;;;;;;;;86.75;70.75;;;;;-147.70;100.00;61350.09;5063783;28;46188;-71
2022/03/25 06:27:53;;;;;;;;;87.50;73.50;;;;;-147.70;100.00;61350.09;5070121;27;45489;-71
2022/03/25 06:30:21;;;;;;;;;86.75;73.00;;;;;-147.70;100.00;61350.09;5078305;27;45237;-71
2022/03/25 06:32:47;;;;;;;;;87.75;77.25;;;;;-147.70;100.00;61350.09;5078296;27;45407;-71
2022/03/25 06:35:13;;;;;;;;;87.00;72.50;;;;;-147.70;100.00;61350.09;5078561;27;46295;-71
2022/03/25 06:37:39;;;;;;;;;108.75;87.25;;;;;-147.70;100.00;61350.09;5078511;27;45556;-71
2022/03/25 06:40:07;;;;;;;;;109.50;87.75;;;;;-147.70;100.00;61350.09;5076692;28;45313;-71
2022/03/25 06:42:34;;;;;;;;;109.25;88.00;;;;;-147.70;100.00;61350.09;5078754;27;45344;-71
2022/03/25 06:44:59;;;;;;;;;90.75;72.25;;;;;-147.70;100.00;61350.09;5078057;27;45372;-71
2022/03/25 06:47:25;;;;;;;;;83.00;66.00;;;;;-147.70;100.00;61350.09;5078251;28;45454;-72
2022/03/25 06:49:51;;;;;;;;;97.25;76.00;;;;;-147.70;100.00;61350.09;5078406;27;45450;-72
2022/03/25 06:52:16;;;;;;;;;81.25;72.00;;;;;-147.70;100.00;61350.09;5078690;27;45462;-72
2022/03/25 06:54:42;;;;;;;;;100.75;79.00;;;;;-147.70;100.00;61350.09;5077849;27;46125;-71
2022/03/25 06:57:09;;;;;;;;;89.00;72.25;;;;;-147.70;100.00;61350.09;5078343;27;45435;-72
2022/03/25 06:59:35;;;;;;;;;86.50;71.75;;;;;-147.70;100.00;61350.09;5078446;27;45412;-72
2022/03/25 07:02:01;;;;;;;;;87.75;70.25;;;;;-147.70;100.00;61350.09;5078032;27;45538;-71
2022/03/25 07:04:27;;;;;;;;;89.75;74.50;;;;;-147.70;100.00;61350.09;5078062;28;45306;-72
2022/03/25 07:06:56;;;;;;;;;90.00;76.50;;;;;-147.70;100.00;61350.09;5077762;27;45494;-72
2022/03/25 07:09:21;;;;;;;;;87.00;72.75;;;;;-147.70;100.00;61350.09;5077872;28;45348;-72
2022/03/25 07:11:47;;;;;;;;;81.50;70.25;;;;;-147.70;100.00;61350.09;5078088;27;45257;-72
2022/03/25 07:14:12;;;;;;;;;84.00;68.00;;;;;-147.70;100.00;61350.09;5077993;28;45522;-72
2022/03/25 07:16:42;;;;;;;;;82.25;69.75;;;;;-147.70;100.00;61350.09;5077344;27;45510;-72
2022/03/25 07:19:10;;;;;;;;;81.75;65.50;;;;;-147.70;100.00;61350.09;5077782;27;45336;-71
2022/03/25 07:21:36;;;;;;;;;82.00;69.25;;;;;-147.70;100.00;61350.09;5077646;27;45297;-71
2022/03/25 07:24:01;;;;;;;;;83.75;67.00;;;;;-147.70;100.00;61350.09;5077860;27;47473;-72
2022/03/25 07:26:27;;;;;;;;;81.75;63.25;;;;;-147.70;100.00;61350.09;5077269;27;45419;-71
2022/03/25 07:28:52;;;;;;;;;78.50;62.75;;;;;-147.70;100.00;61350.09;5077880;28;45368;-72
2022/03/25 07:31:18;;;;;;;;;80.50;63.75;;;;;-147.70;100.00;61350.09;5078097;27;45462;-72
2022/03/25 07:33:44;;;;;;;;;76.25;61.25;;;;;-147.70;100.00;61350.09;5077576;27;47537;-72
2022/03/25 07:36:10;;;;;;;;;76.50;58.75;;;;;-147.70;100.00;61350.09;5077649;27;45804;-72
2022/03/25 07:38:36;;;;;;;;;78.00;61.00;;;;;-147.70;100.00;61350.09;5077856;27;45425;-71
2022/03/25 07:41:03;;;;;;;;;76.00;60.50;;;;;-147.70;100.00;61350.09;5078031;27;45403;-72
2022/03/25 07:43:30;;;;;;;;;76.25;62.00;;;;;-147.70;100.00;61350.09;5076935;27;46375;-72
2022/03/25 07:45:56;;;;;;;;;74.00;55.50;;;;;-147.70;100.00;61350.09;5077392;27;45370;-72
2022/03/25 07:48:22;;;;;;;;;74.75;55.25;;;;;-147.70;100.00;61350.09;5077328;27;45464;-72
2022/03/25 07:50:47;;;;;;;;;71.00;54.00;;;;;-147.70;100.00;61350.09;5077606;27;45559;-72
2022/03/25 07:53:13;;;;;;;;;71.50;54.50;;;;;-147.70;100.00;61350.09;5077185;27;46015;-72
2022/03/25 07:55:39;;;;;;;;;70.75;55.00;;;;;-147.70;100.00;61350.09;5077156;27;45509;-72
2022/03/25 07:58:04;;;;;;;;;73.50;57.25;;;;;-147.70;100.00;61350.09;5076354;27;45334;-72
2022/03/25 08:00:30;;;;;;;;;77.00;57.00;;;;;-147.70;100.00;61350.09;5077214;28;45732;-70
2022/03/25 08:02:56;;;;;;;;;69.50;53.00;;;;;-147.70;100.00;61350.09;5077391;27;45347;-71
2022/03/25 08:05:25;;;;;;;;;71.50;53.25;;;;;-147.70;100.00;61350.09;5077475;28;45392;-71
2022/03/25 08:07:55;;;;;;;;;72.75;54.50;;;;;-147.70;100.00;61350.09;5077534;27;45414;-71
2022/03/25 08:10:28;;;;;;;;;64.00;52.25;;;;;-147.70;100.00;61350.09;5077517;27;45356;-71
2022/03/25 08:12:56;;;;;;;;;64.00;52.00;;;;;-147.70;100.00;61350.09;5076512;27;47250;-71
2022/03/25 08:15:23;;;;;;;;;69.75;51.75;;;;;-147.70;100.00;61350.09;5076580;27;45538;-71
2022/03/25 08:17:52;;;;;;;;;59.25;48.25;;;;;-147.70;100.00;61350.09;5077132;27;45344;-71
2022/03/25 08:20:25;;;;;;;;;66.00;49.50;;;;;-147.70;100.00;61350.09;5077366;27;45485;-70
2022/03/25 08:22:52;;;;;;;;;67.00;52.75;;;;;-147.70;100.00;61350.09;5077105;27;45408;-77
2022/03/25 08:28:01;;;;;;;;;85.25;71.75;;;;;-147.70;100.00;61350.09;5076950;28;45491;-71
2022/03/25 08:30:28;;;;;;;;;76.50;56.00;;;;;-147.70;100.00;61350.09;5077225;27;45448;-71
2022/03/25 08:32:54;;;;;;;;;73.75;54.25;;;;;-147.70;100.00;61350.09;5076249;27;45632;-70
2022/03/25 08:35:19;;;;;;;;;63.50;47.75;;;;;-147.70;100.00;61350.09;5075923;28;45428;-70
2022/03/25 08:37:45;;;;;;;;;61.00;45.25;;;;;-147.70;100.00;61350.09;5076899;27;45419;-72
2022/03/25 08:40:10;;;;;;;;;61.00;46.00;;;;;-147.70;100.00;61350.09;5075899;27;45271;-71
2022/03/25 08:42:36;;;;;;;;;57.33;41.67;;;;;-147.70;100.00;61350.09;5076161;27;46188;-71
2022/03/25 08:45:02;;;;;;;;;55.00;41.67;;;;;-147.70;100.00;61350.09;5076526;27;45392;-72
2022/03/25 08:47:27;;;;;;;;;59.33;43.33;;;;;-147.70;100.00;61350.09;5076568;28;45395;-72
2022/03/25 08:49:53;;;;;;;;;47.33;37.67;;;;;-147.70;100.00;61350.09;5076572;28;45469;-71
2022/03/25 08:52:20;;;;;;;;;45.33;33.67;;;;;-147.70;100.00;61350.09;5076289;27;45404;-72
2022/03/25 08:54:49;;;;;;;;;47.67;35.00;;;;;-147.70;100.00;61350.09;5075297;28;45361;-71
2022/03/25 08:57:14;;;;;;;;;44.67;36.33;;;;;-147.70;100.00;61350.09;5076275;27;45438;-73
2022/03/25 08:59:40;;;;;;;;;42.33;35.33;;;;;-147.70;100.00;61350.09;5076278;27;45207;-74
2022/03/25 09:02:06;;;;;;;;;55.67;45.67;;;;;-147.70;100.00;61350.09;5076510;27;46521;-74
2022/03/25 09:04:31;;;;;;;;;47.00;37.67;;;;;-147.70;100.00;61350.09;5076342;27;45490;-73
2022/03/25 09:06:57;;;;;;;;;48.00;36.33;;;;;-147.70;100.00;61350.09;5076704;27;45327;-74
2022/03/25 09:09:23;;;;;;;;;43.33;35.00;;;;;-147.70;100.00;61350.09;5079347;27;45404;-74
2022/03/25 09:11:48;;;;;;;;;44.67;36.00;;;;;-147.70;100.00;61350.09;5079279;28;47050;-75
2022/03/25 09:14:14;;;;;;;;;37.33;31.00;;;;;-147.70;100.00;61350.09;5079430;28;45362;-75
2022/03/25 09:16:40;;;;;;;;;45.67;35.67;;;;;-147.70;100.00;61350.09;5079689;27;45446;-73
2022/03/25 09:19:06;;;;;;;;;44.33;35.67;;;;;-147.70;100.00;61350.09;5079916;27;45473;-74
2022/03/25 09:21:31;;;;;;;;;46.00;34.00;;;;;-147.70;100.00;61350.09;5079187;27;45450;-75
2022/03/25 09:23:57;;;;;;;;;38.00;33.67;;;;;-147.70;100.00;61350.09;5079527;27;45294;-73
2022/03/25 09:26:23;;;;;;;;;38.67;30.67;;;;;-147.70;100.00;61350.09;5079873;27;45471;-74
2022/03/25 09:28:48;;;;;;;;;41.00;33.00;;;;;-147.70;100.00;61350.09;5079550;28;45269;-71
2022/03/25 09:31:14;;;;;;;;;39.33;33.00;;;;;-147.70;100.00;61350.09;5078559;27;45669;-72
2022/03/25 09:33:39;;;;;;;;;38.67;32.67;;;;;-147.70;100.00;61350.09;5079324;27;45497;-72
2022/03/25 09:36:04;;;;;;;;;44.67;32.67;;;;;-147.70;100.00;61350.09;5079156;28;45269;-71
2022/03/25 09:38:30;;;;;;;;;37.00;29.67;;;;;-147.70;100.00;61350.09;5079451;28;45365;-74
2022/03/25 09:40:57;;;;;;;;;29.33;27.00;;;;;-147.70;100.00;61350.09;5078827;28;46297;-73
2022/03/25 09:43:23;;;;;;;;;38.00;30.67;;;;;-147.70;100.00;61350.09;5077242;27;45602;-74
2022/03/25 09:45:48;;;;;;;;;36.00;31.33;;;;;-147.70;100.00;61350.09;5078884;27;45488;-72
2022/03/25 09:48:14;;;;;;;;;28.67;23.67;;;;;-147.70;100.00;61350.09;5078624;28;45408;-71
2022/03/25 09:50:40;;;;;;;;;37.67;30.67;;;;;-147.70;100.00;61350.09;5078701;28;46357;-70
2022/03/25 09:53:07;;;;;;;;;28.00;23.67;;;;;-147.70;100.00;61350.09;5078096;27;45495;-69
2022/03/25 09:55:36;;;;;;;;;34.67;25.67;;;;;-147.70;100.00;61350.09;5078943;27;45533;-75
2022/03/25 09:58:01;;;;;;;;;25.33;20.67;;;;;-147.70;100.00;61350.09;5078488;27;45765;-74
2022/03/25 10:00:27;;;;;;;;;24.00;20.67;;;;;-147.70;100.00;61350.09;5078509;27;46071;-75
2022/03/25 10:02:52;;;;;;;;;24.67;18.67;;;;;-147.70;100.00;61350.09;5077969;27;45574;-76
2022/03/25 10:05:20;;;;;;;;;24.33;19.00;;;;;-147.70;100.00;61350.09;5078663;27;45304;-74
2022/03/25 10:07:51;;;;;;;;;22.33;20.00;;;;;-147.70;100.00;61350.09;5078175;27;45592;-71
2022/03/25 10:10:17;;;;;;;;;22.33;19.00;;;;;-147.70;100.00;61350.09;5078746;27;46675;-71
2022/03/25 10:12:45;;;;;;;;;25.33;23.33;;;;;-147.70;100.00;61350.09;5078727;27;45464;-70
2022/03/25 10:15:25;;;;;;;;;19.33;17.67;;;;;-147.70;100.00;61350.09;5078670;27;45329;-71
2022/03/25 10:17:53;;;;;;;;;18.67;16.67;;;;;-147.70;100.00;61350.09;5079384;27;45383;-72
2022/03/25 10:20:22;;;;;;;;;20.33;18.00;;;;;-147.70;100.00;61350.09;5077816;28;46246;-73
2022/03/25 10:23:11;;;;;;;;;29.67;19.67;;;;;-147.70;100.00;61350.09;5078495;27;45748;-70
2022/03/25 10:25:49;;;;;;;;;25.67;20.67;;;;;-147.70;100.00;61350.09;5078666;28;45406;-73
2022/03/25 10:28:27;;;;;;;;;16.67;16.00;;;;;-147.70;100.00;61350.09;5079134;28;45311;-73
2022/03/25 10:31:05;;;;;;;;;20.00;17.33;;;;;-147.70;100.00;61350.09;5077491;27;46235;-70
2022/03/25 10:33:47;;;;;;;;;23.33;19.67;;;;;-147.70;100.00;61350.09;5076352;28;45461;-70
2022/03/25 10:36:15;;;;;;;;;22.67;20.00;;;;;-147.70;100.00;61350.09;5078401;28;45307;-71
2022/03/25 10:38:43;;;;;;;;;17.33;17.33;;;;;-147.70;100.00;61350.09;5078228;27;45566;-71
2022/03/25 10:41:10;;;;;;;;;18.00;16.33;;;;;-147.70;100.00;61350.09;5078113;27;45511;-70
2022/03/25 10:43:47;;;;;;;;;15.33;13.00;;;;;-147.70;100.00;61350.09;5077179;27;45752;-71
2022/03/25 10:46:28;;;;;;;;;20.33;15.67;;;;;-147.70;100.00;61350.09;5077946;27;45301;-70
2022/03/25 10:48:54;;;;;;;;;18.00;16.00;;;;;-147.70;100.00;61350.09;5078397;27;45365;-70
2022/03/25 10:51:19;;;;;;;;;17.67;17.00;;;;;-147.70;100.00;61350.09;5077178;28;46170;-71
2022/03/25 10:53:47;;;;;;;;;17.67;14.67;;;;;-147.70;100.00;61350.09;5078120;28;45388;-71